createdAt,value
2022-12-11T00:00:44.041Z,-1.20
2022-12-11T00:03:25.899Z,-1.16
2022-12-11T00:06:08.002Z,-1.15
2022-12-11T00:08:48.494Z,-1.13
2022-12-11T00:11:29.736Z,-1.13
2022-12-11T00:14:12.533Z,-1.13
2022-12-11T00:16:52.487Z,-1.12
2022-12-11T00:19:35.082Z,-1.25
2022-12-11T00:22:17.322Z,-1.19
2022-12-11T00:24:58.297Z,-1.14
2022-12-11T00:27:40.277Z,-1.20
2022-12-11T00:30:21.171Z,-1.26
2022-12-11T00:33:00.981Z,-1.25
2022-12-11T00:35:41.482Z,-1.36
2022-12-11T00:38:20.884Z,-1.31
2022-12-11T00:41:00.429Z,-1.24
2022-12-11T00:43:41.873Z,-1.34
2022-12-11T00:46:23.241Z,-1.23
2022-12-11T00:49:04.824Z,-1.21
2022-12-11T00:51:44.082Z,-1.18
2022-12-11T00:54:26.196Z,-1.20
2022-12-11T00:57:07.191Z,-1.19
2022-12-11T00:59:46.975Z,-1.18
2022-12-11T01:02:26.906Z,-1.25
2022-12-11T01:05:10.560Z,-1.17
2022-12-11T01:07:51.275Z,-1.16
2022-12-11T01:10:34.789Z,-1.14
2022-12-11T01:13:15.733Z,-1.27
2022-12-11T01:15:55.117Z,-1.25
2022-12-11T01:18:35.249Z,-1.23
2022-12-11T01:21:15.045Z,-1.35
2022-12-11T01:23:54.859Z,-1.40
2022-12-11T01:26:34.682Z,-1.47
2022-12-11T01:29:12.530Z,-1.37
2022-12-11T01:31:50.747Z,-1.30
2022-12-11T01:34:33.238Z,-1.30
2022-12-11T01:37:13.886Z,-1.28
2022-12-11T01:39:53.700Z,-1.23
2022-12-11T01:42:34.761Z,-1.19
2022-12-11T01:45:32.068Z,-1.28
2022-12-11T01:48:12.982Z,-1.28
2022-12-11T01:50:55.104Z,-1.24
2022-12-11T01:53:35.815Z,-1.28
2022-12-11T01:56:16.502Z,-1.32
2022-12-11T01:58:57.466Z,-1.27
2022-12-11T02:01:41.179Z,-1.22
2022-12-11T02:04:24.315Z,-1.23
2022-12-11T02:07:05.404Z,-1.19
2022-12-11T02:09:45.454Z,-1.17
2022-12-11T02:12:27.653Z,-1.25
2022-12-11T02:15:11.128Z,-1.21
2022-12-11T02:17:55.590Z,-1.20
2022-12-11T02:20:37.166Z,-1.17
2022-12-11T02:23:42.863Z,-1.15
2022-12-11T02:26:30.758Z,-1.28
2022-12-11T02:29:14.374Z,-1.26
2022-12-11T02:31:54.181Z,-1.19
2022-12-11T02:34:35.493Z,-1.20
2022-12-11T02:37:16.283Z,-1.20
2022-12-11T02:39:59.525Z,-1.19
2022-12-11T02:42:40.650Z,-1.17
2022-12-11T02:46:04.231Z,-1.20
2022-12-11T02:48:47.476Z,-1.23
2022-12-11T02:51:31.905Z,-1.22
2022-12-11T02:54:17.022Z,-1.29
2022-12-11T02:57:00.132Z,-1.45
2022-12-11T02:59:43.460Z,-1.43
2022-12-11T03:02:24.039Z,-1.34
2022-12-11T03:05:03.174Z,-1.40
2022-12-11T03:07:43.745Z,-1.36
2022-12-11T03:10:26.653Z,-1.36
2022-12-11T03:13:07.697Z,-1.50
2022-12-11T03:15:49.670Z,-1.38
2022-12-11T03:18:31.573Z,-1.57
2022-12-11T03:21:13.539Z,-1.46
2022-12-11T03:23:56.411Z,-1.46
2022-12-11T03:26:36.966Z,-1.36
2022-12-11T03:29:19.352Z,-1.38
2022-12-11T03:31:59.431Z,-1.37
2022-12-11T03:34:42.416Z,-1.34
2022-12-11T03:37:23.550Z,-1.32
2022-12-11T03:40:04.645Z,-1.34
2022-12-11T03:42:44.945Z,-1.38
2022-12-11T03:45:26.205Z,-1.36
2022-12-11T03:48:07.130Z,-1.37
2022-12-11T03:50:45.535Z,-1.38
2022-12-11T03:53:25.767Z,-1.47
2022-12-11T03:56:07.629Z,-1.43
2022-12-11T03:58:48.415Z,-1.35
2022-12-11T04:01:30.202Z,-1.32
2022-12-11T04:04:11.330Z,-1.43
2022-12-11T04:06:54.599Z,-1.36
2022-12-11T04:09:36.296Z,-1.40
2022-12-11T04:12:17.194Z,-1.60
2022-12-11T04:15:03.338Z,-1.50
2022-12-11T04:18:02.498Z,-1.41
2022-12-11T04:21:01.422Z,-1.50
2022-12-11T04:24:00.289Z,-1.40
2022-12-11T04:26:40.187Z,-1.35
2022-12-11T04:29:21.447Z,-1.35
2022-12-11T04:32:01.295Z,-1.32
2022-12-11T04:34:43.071Z,-1.33
2022-12-11T04:37:24.081Z,-1.35
2022-12-11T04:40:04.031Z,-1.34
2022-12-11T04:42:45.394Z,-1.34
2022-12-11T04:45:26.814Z,-1.41
2022-12-11T04:48:08.477Z,-1.42
2022-12-11T04:50:49.511Z,-1.43
2022-12-11T04:53:31.481Z,-1.49
2022-12-11T04:56:13.199Z,-1.45
2022-12-11T04:58:53.785Z,-1.50
2022-12-11T05:01:33.605Z,-1.47
2022-12-11T05:04:11.437Z,-1.45
2022-12-11T05:06:51.646Z,-1.57
2022-12-11T05:09:31.086Z,-1.53
2022-12-11T05:12:11.194Z,-1.52
2022-12-11T05:14:53.942Z,-1.60
2022-12-11T05:17:35.994Z,-1.51
2022-12-11T05:20:15.254Z,-1.63
2022-12-11T05:23:39.024Z,-1.59
2022-12-11T05:26:20.326Z,-1.59
2022-12-11T05:29:00.178Z,-1.64
2022-12-11T05:31:42.082Z,-1.59
2022-12-11T05:34:23.083Z,-1.59
2022-12-11T05:37:06.416Z,-1.53
2022-12-11T05:39:47.406Z,-1.57
2022-12-11T05:42:29.117Z,-1.53
2022-12-11T05:45:11.084Z,-1.64
2022-12-11T05:47:51.666Z,-1.63
2022-12-11T05:50:33.691Z,-1.65
2022-12-11T05:53:14.428Z,-1.71
2022-12-11T05:56:02.183Z,-1.63
2022-12-11T05:58:42.236Z,-1.57
2022-12-11T06:01:24.253Z,-1.55
2022-12-11T06:04:05.493Z,-1.59
2022-12-11T06:06:46.402Z,-1.62
2022-12-11T06:09:29.760Z,-1.63
2022-12-11T06:12:10.722Z,-1.57
2022-12-11T06:14:50.500Z,-1.50
2022-12-11T06:17:28.634Z,-1.46
2022-12-11T06:20:11.012Z,-1.44
2022-12-11T06:22:51.525Z,-1.44
2022-12-11T06:25:31.738Z,-1.43
2022-12-11T06:28:12.809Z,-1.40
2022-12-11T06:30:52.564Z,-1.38
2022-12-11T06:33:32.359Z,-1.42
2022-12-11T06:36:12.915Z,-1.45
2022-12-11T06:38:53.592Z,-1.39
2022-12-11T06:41:33.372Z,-1.37
2022-12-11T06:44:13.498Z,-1.38
2022-12-11T06:46:54.570Z,-1.37
2022-12-11T06:49:32.462Z,-1.42
2022-12-11T06:52:18.056Z,-1.39
2022-12-11T06:54:58.778Z,-1.38
2022-12-11T06:57:38.617Z,-1.50
2022-12-11T07:00:18.717Z,-1.54
2022-12-11T07:02:59.824Z,-1.52
2022-12-11T07:05:38.058Z,-1.60
2022-12-11T07:08:17.879Z,-1.53
2022-12-11T07:11:04.166Z,-1.47
2022-12-11T07:13:45.485Z,-1.54
2022-12-11T07:16:25.276Z,-1.56
2022-12-11T07:19:07.250Z,-1.55
2022-12-11T07:21:50.232Z,-1.55
2022-12-11T07:24:33.331Z,-1.52
2022-12-11T07:27:14.069Z,-1.54
2022-12-11T07:29:55.441Z,-1.50
2022-12-11T07:32:35.423Z,-1.59
2022-12-11T07:35:14.793Z,-1.63
2022-12-11T07:37:53.026Z,-1.57
2022-12-11T07:40:31.566Z,-1.51
2022-12-11T07:43:11.330Z,-1.51
2022-12-11T07:45:49.241Z,-1.75
2022-12-11T07:48:31.356Z,-1.75
2022-12-11T07:51:12.793Z,-1.59
2022-12-11T07:53:54.204Z,-1.54
2022-12-11T07:56:54.425Z,-1.48
2022-12-11T07:59:34.341Z,-1.49
2022-12-11T08:02:15.627Z,-1.48
2022-12-11T08:04:58.999Z,-1.49
2022-12-11T08:07:40.422Z,-1.45
2022-12-11T08:10:22.860Z,-1.62
2022-12-11T08:13:04.774Z,-1.50
2022-12-11T08:15:45.854Z,-1.51
2022-12-11T08:18:27.197Z,-1.68
2022-12-11T08:21:07.717Z,-1.73
2022-12-11T08:23:48.415Z,-1.59
2022-12-11T08:26:29.690Z,-1.56
2022-12-11T08:29:09.655Z,-1.52
2022-12-11T08:31:47.512Z,-1.51
2022-12-11T08:34:27.971Z,-1.44
2022-12-11T08:37:09.083Z,-1.37
2022-12-11T08:39:48.846Z,-1.44
2022-12-11T08:42:26.792Z,-1.54
2022-12-11T08:45:07.838Z,-1.46
2022-12-11T08:47:48.293Z,-1.52
2022-12-11T08:50:28.165Z,-1.46
2022-12-11T08:53:08.121Z,-1.44
2022-12-11T08:55:49.289Z,-1.41
2022-12-11T08:58:29.148Z,-1.36
2022-12-11T09:01:09.917Z,-1.37
2022-12-11T09:03:50.890Z,-1.29
2022-12-11T09:06:33.470Z,-1.37
2022-12-11T09:09:14.971Z,-1.33
2022-12-11T09:11:56.479Z,-1.34
2022-12-11T09:14:37.834Z,-1.33
2022-12-11T09:17:18.959Z,-1.30
2022-12-11T09:20:00.767Z,-1.20
2022-12-11T09:22:43.803Z,-1.26
2022-12-11T09:25:26.772Z,-1.31
2022-12-11T09:28:07.792Z,-1.32
2022-12-11T09:30:49.645Z,-1.39
2022-12-11T09:33:32.611Z,-1.33
2022-12-11T09:36:13.834Z,-1.41
2022-12-11T09:38:55.097Z,-1.40
2022-12-11T09:41:38.852Z,-1.29
2022-12-11T09:44:29.936Z,-1.29
2022-12-11T09:47:17.555Z,-1.22
2022-12-11T09:49:57.994Z,-1.24
2022-12-11T09:52:38.562Z,-1.23
2022-12-11T09:55:20.655Z,-1.11
2022-12-11T09:58:02.094Z,-1.04
2022-12-11T10:00:42.535Z,-1.03
2022-12-11T10:03:35.221Z,-0.98
2022-12-11T10:06:21.291Z,-0.97
2022-12-11T10:09:05.049Z,-1.02
2022-12-11T10:11:56.099Z,-1.07
2022-12-11T10:14:40.747Z,-0.97
2022-12-11T10:17:22.049Z,-1.04
2022-12-11T10:20:05.205Z,-0.92
2022-12-11T10:22:43.654Z,-0.88
2022-12-11T10:25:26.441Z,-0.81
2022-12-11T10:28:11.412Z,-0.82
2022-12-11T10:30:52.238Z,-0.80
2022-12-11T10:33:34.550Z,-0.72
2022-12-11T10:36:18.932Z,-0.68
2022-12-11T10:39:00.762Z,-0.74
2022-12-11T10:41:43.202Z,-0.76
2022-12-11T10:44:22.133Z,-0.69
2022-12-11T10:47:04.722Z,-0.72
2022-12-11T10:49:53.034Z,-0.67
2022-12-11T10:52:34.824Z,-0.69
2022-12-11T10:55:20.053Z,-0.57
2022-12-11T10:58:02.369Z,-0.59
2022-12-11T11:00:41.487Z,-0.53
2022-12-11T11:03:23.770Z,-0.64
2022-12-11T11:06:04.611Z,-0.75
2022-12-11T11:08:48.159Z,-0.70
2022-12-11T11:11:29.689Z,-0.70
2022-12-11T11:14:13.433Z,-0.73
2022-12-11T11:16:56.504Z,-0.74
2022-12-11T11:19:39.486Z,-0.72
2022-12-11T11:22:20.505Z,-0.82
2022-12-11T11:25:00.291Z,-0.70
2022-12-11T11:27:41.039Z,-0.61
2022-12-11T11:30:24.960Z,-0.56
2022-12-11T11:33:13.401Z,-0.58
2022-12-11T11:35:54.401Z,-0.54
2022-12-11T11:38:36.173Z,-0.52
2022-12-11T11:41:18.538Z,-0.55
2022-12-11T11:44:03.144Z,-0.44
2022-12-11T11:46:45.023Z,-0.40
2022-12-11T11:49:26.970Z,-0.36
2022-12-11T11:52:08.991Z,-0.32
2022-12-11T11:54:51.627Z,-0.25
2022-12-11T11:57:33.683Z,-0.38
2022-12-11T12:00:20.642Z,-0.29
2022-12-11T12:03:03.478Z,-0.27
2022-12-11T12:05:44.377Z,-0.20
2022-12-11T12:08:34.241Z,-0.23
2022-12-11T12:11:13.911Z,-0.21
2022-12-11T12:13:56.948Z,-0.24
2022-12-11T12:16:55.118Z,-0.29
2022-12-11T12:19:47.142Z,-0.30
2022-12-11T12:22:32.143Z,-0.23
2022-12-11T12:25:15.599Z,-0.33
2022-12-11T12:28:04.153Z,-0.23
2022-12-11T12:30:46.404Z,-0.19
2022-12-11T12:33:28.439Z,-0.14
2022-12-11T12:36:12.319Z,-0.12
2022-12-11T12:38:56.105Z,-0.10
2022-12-11T12:41:37.167Z,-0.12
2022-12-11T12:44:18.569Z,-0.12
2022-12-11T12:47:00.107Z,-0.14
2022-12-11T12:49:41.649Z,-0.21
2022-12-11T12:52:23.119Z,-0.21
2022-12-11T12:55:17.590Z,-0.26
2022-12-11T12:58:00.207Z,-0.33
2022-12-11T13:00:41.565Z,-0.35
2022-12-11T13:03:22.644Z,-0.41
2022-12-11T13:06:05.110Z,-0.45
2022-12-11T13:08:48.406Z,-0.50
2022-12-11T13:11:34.988Z,-0.53
2022-12-11T13:14:28.658Z,-0.60
2022-12-11T13:17:23.562Z,-0.65
2022-12-11T13:20:16.232Z,-0.70
2022-12-11T13:22:58.142Z,-0.75
2022-12-11T13:25:48.281Z,-0.80
2022-12-11T13:28:31.355Z,-0.84
2022-12-11T13:31:31.000Z,-0.90
2022-12-11T13:34:16.466Z,-0.95
2022-12-11T13:36:57.691Z,-1.02
2022-12-11T13:39:39.305Z,-1.05
2022-12-11T13:42:23.386Z,-1.10
2022-12-11T13:45:03.311Z,-1.14
2022-12-11T13:47:43.117Z,-1.22
2022-12-11T13:50:27.769Z,-1.29
2022-12-11T13:53:15.426Z,-1.33
2022-12-11T13:56:01.470Z,-1.39
2022-12-11T13:58:43.456Z,-1.45
2022-12-11T14:01:25.144Z,-1.52
2022-12-11T14:04:07.778Z,-1.57
2022-12-11T14:06:48.869Z,-1.63
2022-12-11T14:09:30.671Z,-1.68
2022-12-11T14:12:18.295Z,-1.75
2022-12-11T14:15:02.144Z,-1.80
2022-12-11T14:17:47.107Z,-1.86
2022-12-11T14:20:30.860Z,-1.91
2022-12-11T14:23:17.508Z,-1.98
2022-12-11T14:25:58.629Z,-2.03
2022-12-11T14:28:39.823Z,-2.08
2022-12-11T14:31:28.520Z,-2.12
2022-12-11T14:34:12.895Z,-2.16
2022-12-11T14:36:53.364Z,-2.24
2022-12-11T14:39:36.051Z,-2.29
2022-12-11T14:42:18.612Z,-2.31
2022-12-11T14:44:59.418Z,-2.35
2022-12-11T14:47:41.738Z,-2.40
2022-12-11T14:50:22.541Z,-2.45
2022-12-11T14:53:05.599Z,-2.51
2022-12-11T14:55:46.520Z,-2.55
2022-12-11T14:58:27.727Z,-2.61
2022-12-11T15:01:21.123Z,-2.67
2022-12-11T15:04:05.882Z,-2.74
2022-12-11T15:06:48.661Z,-2.83
2022-12-11T15:09:29.805Z,-2.88
2022-12-11T15:12:12.506Z,-2.93
2022-12-11T15:14:55.766Z,-2.99
2022-12-11T15:17:37.404Z,-3.06
2022-12-11T15:20:25.371Z,-3.11
2022-12-11T15:23:07.639Z,-3.18
2022-12-11T15:25:52.359Z,-3.23
2022-12-11T15:28:34.229Z,-3.28
2022-12-11T15:31:24.895Z,-3.33
2022-12-11T15:37:02.627Z,-3.49
2022-12-11T15:39:45.590Z,-3.55
2022-12-11T15:42:32.917Z,-3.61
2022-12-11T15:45:17.787Z,-3.69
2022-12-11T15:48:00.974Z,-3.71
2022-12-11T15:50:41.954Z,-3.77
2022-12-11T15:53:23.467Z,-3.82
2022-12-11T15:56:04.878Z,-3.88
2022-12-11T15:58:46.418Z,-3.93
2022-12-11T16:01:27.718Z,-3.97
2022-12-11T16:04:08.971Z,-4.02
2022-12-11T16:06:48.800Z,-4.09
2022-12-11T16:09:28.569Z,-4.13
2022-12-11T16:12:08.729Z,-4.18
2022-12-11T16:14:49.780Z,-4.24
2022-12-11T16:17:29.825Z,-4.29
2022-12-11T16:20:11.723Z,-4.34
2022-12-11T16:22:52.585Z,-4.40
2022-12-11T16:25:33.854Z,-4.48
2022-12-11T16:28:14.003Z,-4.50
2022-12-11T16:30:55.081Z,-4.50
2022-12-11T16:33:36.501Z,-4.51
2022-12-11T16:36:16.702Z,-4.54
2022-12-11T16:38:59.627Z,-4.58
2022-12-11T16:41:40.649Z,-4.65
2022-12-11T16:44:21.419Z,-4.66
2022-12-11T16:47:03.978Z,-4.71
2022-12-11T16:49:45.147Z,-4.76
2022-12-11T16:52:26.354Z,-4.75
2022-12-11T16:55:09.184Z,-4.79
2022-12-11T16:57:49.154Z,-4.84
2022-12-11T17:00:31.177Z,-4.86
2022-12-11T17:03:11.971Z,-4.92
2022-12-11T17:05:53.367Z,-4.93
2022-12-11T17:08:33.187Z,-4.96
2022-12-11T17:11:15.261Z,-5.01
2022-12-11T17:13:58.304Z,-5.02
2022-12-11T17:16:38.973Z,-5.05
2022-12-11T17:19:19.698Z,-5.07
2022-12-11T17:22:00.134Z,-5.11
2022-12-11T17:24:40.103Z,-5.13
2022-12-11T17:27:21.368Z,-5.15
2022-12-11T17:30:01.198Z,-5.17
2022-12-11T17:32:41.001Z,-5.17
2022-12-11T17:35:20.789Z,-5.21
2022-12-11T17:38:21.424Z,-5.24
2022-12-11T17:41:01.207Z,-5.22
2022-12-11T17:43:41.332Z,-5.25
2022-12-11T17:46:22.534Z,-5.25
2022-12-11T17:49:06.016Z,-5.27
2022-12-11T17:51:47.743Z,-5.28
2022-12-11T17:54:28.224Z,-5.31
2022-12-11T17:57:08.280Z,-5.34
2022-12-11T17:59:49.796Z,-5.34
2022-12-11T18:02:30.799Z,-5.36
2022-12-11T18:05:11.825Z,-5.40
2022-12-11T18:07:57.477Z,-5.42
2022-12-11T18:10:38.413Z,-5.42
2022-12-11T18:13:19.763Z,-5.43
2022-12-11T18:16:01.853Z,-5.47
2022-12-11T18:18:42.711Z,-5.47
2022-12-11T18:21:25.016Z,-5.48
2022-12-11T18:24:05.848Z,-5.48
2022-12-11T18:26:46.735Z,-5.51
2022-12-11T18:29:26.496Z,-5.50
2022-12-11T18:32:06.550Z,-5.51
2022-12-11T18:34:48.704Z,-5.54
2022-12-11T18:37:28.205Z,-5.52
2022-12-11T18:40:09.835Z,-5.52
2022-12-11T18:42:50.337Z,-5.49
2022-12-11T18:45:30.209Z,-5.48
2022-12-11T18:48:10.013Z,-5.47
2022-12-11T18:50:52.186Z,-5.45
2022-12-11T18:53:32.819Z,-5.41
2022-12-11T18:56:13.935Z,-5.38
2022-12-11T18:58:54.046Z,-5.35
2022-12-11T19:01:34.594Z,-5.34
2022-12-11T19:04:17.164Z,-5.32
2022-12-11T19:06:58.293Z,-5.34
2022-12-11T19:09:43.492Z,-5.32
2022-12-11T19:12:29.475Z,-5.33
2022-12-11T19:15:11.510Z,-5.29
2022-12-11T19:17:51.812Z,-5.28
2022-12-11T19:20:48.560Z,-5.26
2022-12-11T19:23:31.672Z,-5.28
2022-12-11T19:26:14.699Z,-5.30
2022-12-11T19:28:56.860Z,-5.30
2022-12-11T19:31:38.452Z,-5.29
2022-12-11T19:34:19.767Z,-5.31
2022-12-11T19:37:00.885Z,-5.31
2022-12-11T19:39:40.575Z,-5.31
2022-12-11T19:42:20.580Z,-5.33
2022-12-11T19:45:02.781Z,-5.35
2022-12-11T19:47:43.563Z,-5.37
2022-12-11T19:50:24.723Z,-5.40
2022-12-11T19:53:05.011Z,-5.43
2022-12-11T19:55:51.749Z,-5.46
2022-12-11T19:58:34.215Z,-5.50
2022-12-11T20:01:21.245Z,-5.53
2022-12-11T20:04:02.115Z,-5.54
2022-12-11T20:06:43.755Z,-5.56
2022-12-11T20:09:24.250Z,-5.60
2022-12-11T20:12:10.177Z,-5.62
2022-12-11T20:14:50.163Z,-5.64
2022-12-11T20:17:30.196Z,-5.68
2022-12-11T20:20:13.591Z,-5.71
2022-12-11T20:22:54.587Z,-5.72
2022-12-11T20:25:35.930Z,-5.79
2022-12-11T20:28:18.125Z,-5.82
2022-12-11T20:30:58.589Z,-5.86
2022-12-11T20:33:38.585Z,-5.88
2022-12-11T20:36:20.687Z,-5.90
2022-12-11T20:39:01.241Z,-5.92
2022-12-11T20:41:41.180Z,-5.96
2022-12-11T20:44:22.673Z,-5.98
2022-12-11T20:47:03.913Z,-6.00
2022-12-11T20:49:45.247Z,-6.04
2022-12-11T20:52:25.203Z,-6.05
2022-12-11T20:55:07.070Z,-6.11
2022-12-11T20:57:49.983Z,-6.14
2022-12-11T21:00:30.877Z,-6.15
2022-12-11T21:03:10.708Z,-6.19
2022-12-11T21:05:50.554Z,-6.19
2022-12-11T21:08:32.378Z,-6.24
2022-12-11T21:11:13.645Z,-6.27
2022-12-11T21:13:54.862Z,-6.30
2022-12-11T21:16:37.623Z,-6.31
2022-12-11T21:19:21.121Z,-6.34
2022-12-11T21:22:21.331Z,-6.35
2022-12-11T21:25:01.165Z,-6.36
2022-12-11T21:27:41.006Z,-6.40
2022-12-11T21:30:20.806Z,-6.40
2022-12-11T21:33:00.840Z,-6.41
2022-12-11T21:35:42.127Z,-6.42
2022-12-11T21:38:23.726Z,-6.46
2022-12-11T21:41:09.207Z,-6.49
2022-12-11T21:46:51.721Z,-6.48
2022-12-11T21:49:33.004Z,-6.48
2022-12-11T21:52:13.168Z,-6.51
2022-12-11T21:54:54.545Z,-6.52
2022-12-11T21:57:35.671Z,-6.54
2022-12-11T22:00:16.298Z,-6.56
2022-12-11T22:02:56.928Z,-6.59
2022-12-11T22:05:40.257Z,-6.60
2022-12-11T22:08:21.509Z,-6.64
2022-12-11T22:11:02.819Z,-6.63
2022-12-11T22:13:44.074Z,-6.63
2022-12-11T22:16:24.240Z,-6.63
2022-12-11T22:19:05.354Z,-6.64
2022-12-11T22:21:45.107Z,-6.64
2022-12-11T22:24:24.911Z,-6.65
2022-12-11T22:27:07.986Z,-6.65
2022-12-11T22:29:49.277Z,-6.67
2022-12-11T22:32:29.109Z,-6.70
2022-12-11T22:35:09.752Z,-6.67
2022-12-11T22:37:51.808Z,-6.67
2022-12-11T22:40:32.077Z,-6.67
2022-12-11T22:43:15.127Z,-6.67
2022-12-11T22:45:56.227Z,-6.68
2022-12-11T22:48:37.583Z,-6.66
2022-12-11T22:51:19.481Z,-6.66
2022-12-11T22:54:02.346Z,-6.68
2022-12-11T22:56:43.427Z,-6.70
2022-12-11T22:59:24.838Z,-6.70
2022-12-11T23:02:04.691Z,-6.71
2022-12-11T23:04:46.178Z,-6.71
2022-12-11T23:07:28.218Z,-6.73
2022-12-11T23:10:09.924Z,-6.74
2022-12-11T23:12:50.218Z,-6.78
2022-12-11T23:15:30.331Z,-6.79
2022-12-11T23:18:11.477Z,-6.78
2022-12-11T23:20:51.292Z,-6.81
2022-12-11T23:23:33.045Z,-6.82
2022-12-11T23:26:14.583Z,-6.83
2022-12-11T23:28:55.551Z,-6.83
2022-12-11T23:31:38.869Z,-6.83
2022-12-11T23:34:21.903Z,-6.85
2022-12-11T23:37:04.930Z,-6.85
2022-12-11T23:39:45.861Z,-6.85
2022-12-11T23:42:25.670Z,-6.85
2022-12-11T23:45:08.160Z,-6.83
2022-12-11T23:47:50.474Z,-6.81
2022-12-11T23:50:32.823Z,-6.82
2022-12-11T23:53:12.928Z,-6.81
2022-12-11T23:55:54.845Z,-6.81
2022-12-11T23:58:37.385Z,-6.79
